Lynnville, IN

7:26 AM CDT on August 21, 2014 (GMT -0500)
1 mile nw boonville off north street | Change Station
CLOSE
Current Station
Personal Weather Station
Location: Boonville, IN
Elevation: 395 ft
Nearby Weather Stations
Active Advisory: Heat Advisory

Elev 395 ft 38.06 °N, 87.28 °W | Updated 2 seconds ago

Clear
Clear
73.0 °F
Feels Like 73 °F
N
4.3
Wind Variable Wind from South
Gusts 8.1 mph

Today
High -- | Low -- °F
--% Chance of Precip.
Yesterday
High -- | Low -- °F
Precip. -- in
6:09 AM 7:34 PM
Waning Crescent, 14% visible
Pressure 30.01 in
Visibility 10.0 miles
Clouds Clear
Heat Index 73 °F
Dew Point 68 °F
Humidity 83%
Rainfall 0.02 in
Snow Depth Not available.
UV 0 out of 12
Pollen 9.80 out of 12
Air Quality Not available.
Flu Activity Not available.
METAR KEVV 211154Z 22003KT 10SM CLR 23/22 A3003 RMK AO2 SLP163 60002 70002 T02280217 10250 20228 53001

More Conditions Fewer Conditions

Pressure 30.01 in
Visibility 10.0 miles
Clouds Clear
Heat Index 73 °F
Dew Point 68 °F
Humidity 83%
Rainfall 0.02 in
Snow Depth Not available.
UV 0 out of 12
Pollen 9.80 out of 12
Air Quality Not available.
Flu Activity Not available.
METAR KEVV 211154Z 22003KT 10SM CLR 23/22 A3003 RMK AO2 SLP163 60002 70002 T02280217 10250 20228 53001

More Conditions Fewer Conditions

10-Day Weather Forecast

Almanac

Astronomy

Aug. 21, 2014 Rise Set
Actual Time 6:09 AM CDT 7:34 PM CDT
Civil Twilight 5:41 AM CDT 8:02 PM CDT
Nautical Twilight 5:08 AM CDT 8:35 PM CDT
Astronomical Twilight 4:33 AM CDT 9:10 PM CDT
Moon 2:40 AM CDT 5:01 PM CDT
Length of Visible Light 14h 20m
Length of Day
13h 25m
Tomorrow will be 2m 16s shorter.
Waning Crescent, 14% of the Moon is Illuminated
Today
Waning Crescent
Aug 25
New
Sep 2
First Quarter
Sep 8
Full
Sep 15
Last Quarter

Today's Extremes

State Highs State Lows

Community

WunderPhotos

Upload Photos

1,745,890 photos uploaded!

WunderBlogs® & News

Nearby

Snow Depth

Station Depth Elevation
No new snow has been reported.

Earthquake Activity

City Distance Mag. Time & Date
No recent earthquake activity has been reported nearby.
Minimum magnitude displayed is 2.5.

Coastal Water Temperatures

Place Temperature
No Stations Reporting

Nearby Weather Stations